Granada, Spain

11:47 AM CEST on March 27, 2017 (GMT +0200)
Granada | | Change Station

Elev 1834 ft 37.18 °N, 3.78 °W | Updated 17 minutes ago

Mostly Cloudy
Mostly Cloudy
54 °F
Feels Like 54 °F
N
0
Wind Variable Wind from North

Today
High -- | Low -- °F
--% Chance of Precip.
Yesterday
High -- | Low -- °F
Precip. -- in
Pressure 30.18 in
Visibility 6.2 miles
Clouds Few 3500 ft
Mostly Cloudy 4500 ft
Dew Point 39 °F
Humidity 58%
Rainfall 0.00 in
Snow Depth Not available.
8:08 AM 8:33 PM
Waning Crescent, 1% visible
METAR LEGR 270930Z 00000KT 9999 FEW035 BKN045 12/04 Q1022
Pressure 30.18 in
Visibility 6.2 miles
Clouds Few 3500 ft
Mostly Cloudy 4500 ft
Dew Point 39 °F
Humidity 58%
Rainfall 0.00 in
Snow Depth Not available.
8:08 AM 8:33 PM
Waning Crescent, 1% visible
METAR LEGR 270930Z 00000KT 9999 FEW035 BKN045 12/04 Q1022

Get Severe Weather Alerts

Thanks for signing up!

Be on the lookout for a verification email in your inbox.

You'll start receiving the daily forecast at 8 AM.

×

10-Day Weather Forecast

×

Almanac

Astronomy

Mar. 27, 2017 Rise Set
Actual Time
Civil Twilight
Nautical Twilight
Astronomical Twilight
Moon
Length of Visible Light
Length of Day
Tomorrow will be .
, % of the Moon is Illuminated

Today's Extremes

Country Highs Country Lows

Community

WunderPhotos

Upload Photos

1,962,540 photos uploaded!

WunderBlog® & News

Nearby

Air Quality

  Air Quality AQ Index Pollutant
Not available.

Snow Depth

Station Depth Elevation

Earthquake Activity

City Distance Mag. Time & Date
Minimum magnitude displayed is 2.5.

Earthquake Activity

City Distance Mag. Time & Date
Minimum magnitude displayed is 2.5.

Coastal Water Temperatures

Place Temperature

Stations

Nearby Weather Stations

Station Location Temp. Windchill Dew Point Humidity Wind Precip. Elev Updated Type